Time;durP1;ratioP1;P1;durP2;ratioP2;P2;SDS_P1;SDS_P2;PMS_P1;PMS_P2;Temp;Humidity;BMP_temperature;BMP_pressure;BME280_temperature;BME280_humidity;BME280_pressure;Samples;Min_cycle;Max_cycle;Signal;HPM_P1;HPM_P2
2021/03/10 00:00:21;;;;;;;26.13;23.43;;;4.70;99.90;;;5.11;76.35;98032.44;5213786;28;20675;-55
2021/03/10 00:02:54;;;;;;;25.70;22.90;;;4.40;99.90;;;4.97;77.26;98034.72;5219035;28;20680;-53
2021/03/10 00:05:27;;;;;;;25.37;22.63;;;4.40;99.90;;;4.88;78.62;98036.53;5207418;28;20199;-56
2021/03/10 00:07:59;;;;;;;27.03;24.07;;;4.20;99.90;;;4.78;79.51;98046.69;5206515;28;20293;-55
2021/03/10 00:10:31;;;;;;;27.53;24.70;;;4.20;99.90;;;4.80;80.57;98045.13;5206784;28;20686;-54
2021/03/10 00:13:05;;;;;;;28.00;25.00;;;4.10;99.90;;;4.81;81.56;98044.41;5211164;28;20252;-57
2021/03/10 00:15:37;;;;;;;28.97;25.27;;;4.20;99.90;;;4.81;81.97;98046.94;5208671;28;20194;-58
2021/03/10 00:18:11;;;;;;;28.40;24.90;;;4.10;99.90;;;4.74;82.08;98034.50;5225329;28;20228;-58
2021/03/10 00:20:43;;;;;;;30.00;26.03;;;4.10;99.90;;;4.69;82.46;98034.16;5223556;28;20232;-59
2021/03/10 00:23:15;;;;;;;28.77;25.03;;;4.00;99.90;;;4.70;82.69;98032.50;5206183;28;20586;-59
2021/03/10 00:25:47;;;;;;;28.33;25.33;;;4.00;99.90;;;4.72;83.12;98036.03;5209105;28;20569;-58
2021/03/10 00:28:19;;;;;;;30.07;25.10;;;4.00;99.90;;;4.66;83.58;98035.53;5218790;28;20201;-57
2021/03/10 00:30:51;;;;;;;28.00;24.60;;;3.90;99.90;;;4.62;83.70;98033.50;5226404;28;20616;-59
2021/03/10 00:33:24;;;;;;;27.77;24.83;;;3.90;99.90;;;4.63;84.02;98037.81;5207044;28;20229;-58
2021/03/10 00:35:56;;;;;;;29.27;25.93;;;3.80;99.90;;;4.59;85.05;98044.25;5207074;28;20200;-59
2021/03/10 00:38:28;;;;;;;29.67;25.87;;;3.90;99.90;;;4.62;85.59;98043.63;5224289;28;20202;-59
2021/03/10 00:41:00;;;;;;;27.60;24.60;;;3.90;99.90;;;4.65;86.25;98048.94;5226659;28;20210;-59
2021/03/10 00:43:32;;;;;;;30.20;26.73;;;4.00;99.90;;;4.70;87.04;98047.69;5210083;28;20224;-59
2021/03/10 00:46:04;;;;;;;30.93;26.87;;;4.00;99.90;;;4.72;87.40;98052.13;5205474;28;20201;-60
2021/03/10 00:48:37;;;;;;;34.33;27.40;;;4.00;99.90;;;4.72;87.86;98058.81;5224161;28;20207;-56
2021/03/10 00:51:09;;;;;;;32.53;27.27;;;4.00;99.90;;;4.72;88.28;98052.13;5225812;28;20208;-55
2021/03/10 00:53:42;;;;;;;31.47;27.57;;;4.00;99.90;;;4.68;88.64;98060.22;5225882;28;20235;-58
2021/03/10 00:56:14;;;;;;;30.23;26.10;;;4.00;99.90;;;4.62;88.68;98056.28;5225437;28;20200;-58
2021/03/10 00:58:49;;;;;;;31.40;27.27;;;4.00;99.90;;;4.59;89.11;98058.56;5224426;28;20200;-57
2021/03/10 01:01:21;;;;;;;33.47;27.60;;;3.90;99.90;;;4.58;89.65;98056.78;5222912;28;20203;-59
2021/03/10 01:03:54;;;;;;;31.20;27.10;;;3.90;99.90;;;4.58;89.73;98057.69;5225401;28;20267;-60
2021/03/10 01:06:26;;;;;;;33.73;28.23;;;3.80;99.90;;;4.59;89.79;98061.09;5205345;28;20201;-59
2021/03/10 01:08:58;;;;;;;31.93;27.53;;;3.80;99.90;;;4.57;90.38;98060.09;5205427;28;20201;-59
2021/03/10 01:11:30;;;;;;;36.53;29.10;;;3.70;99.90;;;4.49;90.31;98057.81;5219153;28;20196;-59
2021/03/10 01:14:02;;;;;;;34.73;29.23;;;3.70;99.90;;;4.52;90.92;98052.09;5219078;28;20201;-59
2021/03/10 01:16:35;;;;;;;34.60;29.37;;;3.80;99.90;;;4.54;91.35;98048.06;5220329;28;20193;-59
2021/03/10 01:19:08;;;;;;;33.93;28.50;;;3.80;99.90;;;4.62;92.01;98046.16;5206524;28;20292;-59
2021/03/10 01:21:40;;;;;;;37.53;30.40;;;3.90;99.90;;;4.63;92.73;98053.00;5211289;28;20215;-61
2021/03/10 01:24:12;;;;;;;38.27;31.00;;;3.90;99.90;;;4.66;92.71;98040.59;5206023;28;20216;-59
2021/03/10 01:26:44;;;;;;;36.53;31.40;;;3.90;99.90;;;4.67;92.82;98043.25;5225926;28;20303;-60
2021/03/10 01:29:16;;;;;;;38.93;30.43;;;3.80;99.90;;;4.70;92.79;98047.69;5224678;28;20204;-62
2021/03/10 01:31:48;;;;;;;38.23;30.03;;;3.80;99.90;;;4.76;92.57;98038.06;5206079;28;20221;-60
2021/03/10 01:34:21;;;;;;;36.53;29.10;;;3.80;99.90;;;4.75;92.70;98043.91;5221032;28;20206;-60
2021/03/10 01:36:53;;;;;;;35.03;29.80;;;3.80;99.90;;;4.66;93.06;98041.47;5225266;28;20290;-59
2021/03/10 01:39:25;;;;;;;35.33;30.13;;;3.80;99.90;;;4.65;93.05;98047.31;5207513;28;20572;-60
2021/03/10 01:41:58;;;;;;;34.60;29.43;;;3.70;99.90;;;4.61;92.95;98046.94;5204862;28;20719;-58
2021/03/10 01:44:30;;;;;;;34.90;29.70;;;3.80;99.90;;;4.55;93.17;98041.34;5222271;28;20201;-59
2021/03/10 01:47:03;;;;;;;33.43;28.00;;;3.70;99.90;;;4.57;93.44;98044.91;5224848;28;20564;-59
2021/03/10 01:49:36;;;;;;;37.17;29.47;;;3.70;99.90;;;4.59;93.47;98043.38;5223004;28;20570;-59
2021/03/10 01:52:09;;;;;;;37.77;29.47;;;3.70;99.90;;;4.60;93.57;98040.09;5211096;28;20225;-60
2021/03/10 01:54:41;;;;;;;35.80;29.70;;;3.70;99.90;;;4.59;93.70;98033.25;5209042;28;20206;-61
2021/03/10 01:57:13;;;;;;;38.17;30.07;;;3.70;99.90;;;4.58;93.95;98041.59;5209244;28;20293;-59
2021/03/10 01:59:46;;;;;;;38.00;30.80;;;3.70;99.90;;;4.65;94.00;98044.78;5228991;28;20229;-60
2021/03/10 02:02:19;;;;;;;35.17;29.67;;;3.80;99.90;;;4.67;94.11;98032.25;5213349;28;20698;-58
2021/03/10 02:04:52;;;;;;;36.20;30.43;;;3.70;99.90;;;4.58;93.87;98032.38;5215017;28;20203;-59
2021/03/10 02:07:31;;;;;;;36.47;30.20;;;3.70;99.90;;;4.49;93.75;98042.63;5218071;28;20194;-60
2021/03/10 02:10:13;;;;;;;36.30;29.67;;;3.60;99.90;;;4.43;93.66;98037.03;5208918;28;20668;-58
2021/03/10 02:12:54;;;;;;;34.87;28.83;;;3.60;99.90;;;4.45;94.28;98037.19;5216069;28;20231;-59
2021/03/10 02:15:36;;;;;;;35.37;29.13;;;3.60;99.90;;;4.48;94.91;98032.38;5208138;28;20210;-59
2021/03/10 02:18:13;;;;;;;34.87;28.70;;;3.60;99.90;;;4.48;94.62;98024.78;5210023;28;20550;-59
2021/03/10 02:20:50;;;;;;;36.80;30.27;;;3.60;99.90;;;4.48;94.78;98020.59;5211240;28;20211;-59
2021/03/10 02:24:06;;;;;;;35.23;28.00;;;3.60;99.90;;;4.53;95.18;98025.16;5208367;28;20229;-59
2021/03/10 02:26:57;;;;;;;38.27;30.07;;;3.60;99.90;;;4.57;95.63;98006.94;5192077;28;20606;-59
2021/03/10 02:29:30;;;;;;;38.60;32.07;;;3.60;99.90;;;4.57;95.10;98009.47;5210043;28;20582;-59
2021/03/10 02:32:03;;;;;;;34.97;29.90;;;3.60;99.90;;;4.47;94.84;98003.66;5226513;28;20232;-58
2021/03/10 02:34:35;;;;;;;35.03;29.50;;;3.60;99.90;;;4.46;95.23;98013.63;5222233;28;20613;-61
2021/03/10 02:37:09;;;;;;;36.30;29.53;;;3.60;99.90;;;4.45;95.13;98010.22;5225007;28;20194;-59
2021/03/10 02:39:41;;;;;;;39.17;31.90;;;3.60;99.90;;;4.46;95.51;98001.88;5226879;28;20208;-60
2021/03/10 02:42:13;;;;;;;36.03;29.43;;;3.60;99.90;;;4.48;95.75;98004.53;5209255;28;20588;-60
2021/03/10 02:44:47;;;;;;;35.30;30.57;;;3.60;99.90;;;4.47;95.71;98011.25;5208834;28;20263;-60
2021/03/10 02:47:19;;;;;;;41.80;32.47;;;3.60;99.90;;;4.50;96.03;98018.22;5224505;28;20203;-61
2021/03/10 02:49:53;;;;;;;37.80;30.20;;;3.60;99.90;;;4.50;96.20;98019.09;5216011;28;20713;-56
2021/03/10 02:52:25;;;;;;;38.90;31.80;;;3.60;99.90;;;4.42;95.56;98025.16;5215451;28;20326;-55
2021/03/10 02:54:58;;;;;;;39.30;30.37;;;3.50;99.90;;;4.42;95.73;98024.28;5228063;28;20201;-55
2021/03/10 02:57:32;;;;;;;38.00;30.77;;;3.50;99.90;;;4.44;95.58;98026.16;5217746;28;20196;-53
2021/03/10 03:00:12;;;;;;;39.03;31.43;;;3.50;99.90;;;4.41;95.79;98022.50;5208943;28;20204;-58
2021/03/10 03:02:44;;;;;;;38.17;31.00;;;3.50;99.90;;;4.48;95.89;98030.72;5208111;28;20222;-57
2021/03/10 03:05:17;;;;;;;36.37;31.40;;;3.50;99.90;;;4.47;95.74;98026.44;5211704;28;20204;-63
2021/03/10 03:07:50;;;;;;;40.43;32.03;;;3.50;99.90;;;4.54;95.83;98029.47;5209127;28;20681;-64
2021/03/10 03:10:24;;;;;;;37.83;31.10;;;3.50;99.90;;;4.60;95.42;98042.63;5220076;28;20231;-61
2021/03/10 03:12:57;;;;;;;36.30;29.47;;;3.60;99.90;;;4.60;95.35;98045.16;5227410;28;20311;-60
2021/03/10 03:15:31;;;;;;;36.90;30.53;;;3.60;99.90;;;4.60;95.45;98050.22;5228058;28;20247;-61
2021/03/10 03:18:05;;;;;;;37.60;31.23;;;3.60;99.90;;;4.65;94.99;98054.00;5220592;28;20208;-62
2021/03/10 03:20:38;;;;;;;37.73;31.13;;;3.50;99.90;;;4.56;95.11;98055.78;5220899;28;20281;-62
2021/03/10 03:23:11;;;;;;;40.37;30.73;;;3.50;99.90;;;4.53;95.29;98058.06;5226153;28;20684;-61
2021/03/10 03:25:45;;;;;;;38.90;31.23;;;3.50;99.90;;;4.55;95.57;98069.19;5214220;28;20200;-61
2021/03/10 03:28:20;;;;;;;37.47;30.30;;;3.60;99.90;;;4.49;95.05;98062.88;5223395;28;20655;-62
2021/03/10 03:30:56;;;;;;;39.80;31.53;;;3.50;99.90;;;4.49;95.56;98067.94;5212364;28;20593;-63
2021/03/10 03:33:30;;;;;;;36.20;30.07;;;3.50;99.90;;;4.47;95.70;98074.50;5207574;28;20239;-63
2021/03/10 03:36:02;;;;;;;39.00;31.57;;;3.50;99.90;;;4.49;96.10;98073.00;5219031;28;20201;-63
2021/03/10 03:38:34;;;;;;;36.77;30.90;;;3.50;99.90;;;4.50;95.90;98073.88;5227623;28;20203;-61
2021/03/10 03:41:06;;;;;;;36.37;30.63;;;3.50;99.90;;;4.50;95.91;98074.75;5219719;28;20202;-62
2021/03/10 03:43:39;;;;;;;38.77;30.97;;;3.50;99.90;;;4.56;95.92;98083.63;5227238;28;20213;-62
2021/03/10 03:46:12;;;;;;;33.87;30.13;;;3.50;99.90;;;4.51;95.84;98081.59;5226283;28;20199;-60
2021/03/10 03:48:45;;;;;;;37.77;30.70;;;3.50;99.90;;;4.50;95.82;98084.88;5227346;28;20259;-60
2021/03/10 03:51:25;;;;;;;38.40;31.03;;;3.60;99.90;;;4.51;96.10;98089.19;5224950;28;20704;-61
2021/03/10 03:54:02;;;;;;;37.00;29.73;;;3.60;99.90;;;4.51;96.08;98086.66;5225388;28;20221;-64
2021/03/10 03:56:34;;;;;;;39.50;30.90;;;3.60;99.90;;;4.57;96.53;98088.81;5222172;28;20191;-63
2021/03/10 03:59:06;;;;;;;37.33;30.03;;;3.60;99.90;;;4.56;96.13;98088.69;5206571;28;20241;-62
2021/03/10 04:01:39;;;;;;;40.60;30.83;;;3.60;99.90;;;4.58;96.39;98082.09;5226569;28;20576;-63
2021/03/10 04:04:11;;;;;;;36.47;31.17;;;3.60;99.90;;;4.62;96.85;98076.53;5226889;28;20664;-63
2021/03/10 04:06:45;;;;;;;39.90;31.07;;;3.60;99.90;;;4.65;96.55;98071.72;5215666;28;20216;-63
2021/03/10 04:09:18;;;;;;;34.40;29.47;;;3.60;99.90;;;4.66;96.66;98078.56;5207203;28;20671;-63
2021/03/10 04:11:50;;;;;;;39.53;31.50;;;3.60;99.90;;;4.65;96.21;98079.31;5223656;28;20211;-63
2021/03/10 04:14:22;;;;;;;39.87;31.10;;;3.60;99.90;;;4.66;96.44;98073.50;5224839;28;20756;-61
2021/03/10 04:16:55;;;;;;;35.80;30.10;;;3.60;99.90;;;4.66;96.07;98070.97;5227050;28;20568;-63
2021/03/10 04:19:27;;;;;;;36.30;29.80;;;3.60;99.90;;;4.64;95.57;98077.56;5224505;28;20254;-62
2021/03/10 04:21:59;;;;;;;36.07;30.17;;;3.60;99.90;;;4.63;95.74;98080.84;5217893;28;20217;-63
2021/03/10 04:24:31;;;;;;;36.30;28.63;;;3.60;99.90;;;4.64;95.81;98075.03;5226158;28;20243;-60
2021/03/10 04:27:04;;;;;;;38.33;30.10;;;3.60;99.90;;;4.64;95.87;98078.44;5225293;28;20197;-62
2021/03/10 04:29:38;;;;;;;37.43;29.47;;;3.70;99.90;;;4.65;96.04;98077.69;5220090;28;20192;-62
2021/03/10 04:32:11;;;;;;;37.83;31.13;;;3.70;99.90;;;4.74;95.94;98075.03;5208538;28;20275;-60
2021/03/10 04:34:43;;;;;;;37.93;30.87;;;3.70;99.90;;;4.80;95.44;98079.72;5225798;28;20228;-61
2021/03/10 04:37:15;;;;;;;37.97;30.27;;;3.70;99.90;;;4.84;94.67;98074.16;5222670;28;20292;-60
2021/03/10 04:39:47;;;;;;;37.67;30.13;;;3.60;99.90;;;4.84;93.61;98069.09;5205764;28;20198;-61
2021/03/10 04:42:20;;;;;;;35.33;30.20;;;3.60;99.90;;;4.78;93.54;98077.06;5209845;28;20216;-61
2021/03/10 04:44:52;;;;;;;35.27;28.53;;;3.60;99.90;;;4.76;93.62;98082.75;5218173;28;20236;-60
2021/03/10 04:47:25;;;;;;;39.30;30.97;;;3.60;99.90;;;4.69;93.62;98086.41;5224562;28;20289;-60
2021/03/10 04:49:57;;;;;;;34.50;30.40;;;3.60;99.90;;;4.66;93.83;98081.97;5225782;28;20205;-60
2021/03/10 04:52:29;;;;;;;37.00;30.30;;;3.60;99.90;;;4.62;94.10;98089.19;5206058;28;20722;-61
2021/03/10 04:55:03;;;;;;;36.43;29.50;;;3.60;99.90;;;4.67;94.17;98082.88;5204957;28;20681;-59
2021/03/10 04:57:35;;;;;;;37.20;29.33;;;3.60;99.90;;;4.65;94.10;98084.38;5217699;28;20200;-60
2021/03/10 05:00:09;;;;;;;39.00;31.13;;;3.60;99.90;;;4.62;94.37;98089.19;5223310;28;20206;-61
2021/03/10 05:02:42;;;;;;;37.63;30.13;;;3.60;99.90;;;4.61;94.24;98093.38;5217036;28;20217;-60
2021/03/10 05:05:15;;;;;;;39.77;31.23;;;3.60;99.90;;;4.62;94.04;98095.16;5209203;28;20202;-60
2021/03/10 05:07:49;;;;;;;37.33;30.67;;;3.50;99.90;;;4.70;93.96;98103.38;5225808;28;20294;-60
2021/03/10 05:10:21;;;;;;;35.87;29.83;;;3.60;99.90;;;4.70;94.46;98098.31;5208679;28;20204;-59
2021/03/10 05:12:53;;;;;;;40.10;32.00;;;3.70;99.90;;;4.69;93.77;98101.59;5225375;28;20232;-63
2021/03/10 05:15:25;;;;;;;37.00;30.03;;;3.60;99.90;;;4.71;93.75;98105.16;5222077;28;20270;-59
2021/03/10 05:17:59;;;;;;;40.47;31.40;;;3.60;99.90;;;4.82;93.25;98114.53;5219087;28;20211;-59
2021/03/10 05:20:31;;;;;;;41.70;32.13;;;3.60;99.90;;;4.86;92.97;98111.47;5221692;28;20190;-60
2021/03/10 05:23:03;;;;;;;36.93;30.93;;;3.60;99.90;;;4.80;92.84;98113.50;5206082;28;20219;-59
2021/03/10 05:25:35;;;;;;;38.83;30.33;;;3.70;99.90;;;4.80;92.82;98110.97;5207904;28;20208;-59
2021/03/10 05:28:06;;;;;;;38.13;31.60;;;3.60;99.90;;;4.78;92.95;98109.97;5221756;28;20194;-59
2021/03/10 05:30:39;;;;;;;39.47;32.63;;;3.70;99.90;;;4.71;93.18;98107.69;5205847;28;20199;-60
2021/03/10 05:33:12;;;;;;;39.33;31.70;;;3.60;99.90;;;4.70;93.16;98103.38;5217502;28;20225;-57
2021/03/10 05:35:44;;;;;;;41.20;32.47;;;3.60;99.90;;;4.68;93.23;98105.78;5218866;28;20232;-60
2021/03/10 05:38:16;;;;;;;39.17;31.27;;;3.60;99.90;;;4.66;93.38;98111.47;5220949;28;20577;-58
2021/03/10 05:40:48;;;;;;;39.03;30.77;;;3.60;99.90;;;4.67;93.49;98113.25;5218512;28;20241;-60
2021/03/10 05:43:20;;;;;;;36.23;30.37;;;3.70;99.90;;;4.65;93.07;98120.72;5216130;28;20242;-60
2021/03/10 05:45:54;;;;;;;38.33;31.87;;;3.60;99.90;;;4.63;93.56;98119.69;5222772;28;20197;-61
2021/03/10 05:48:26;;;;;;;45.40;36.20;;;3.60;99.90;;;4.62;92.85;98114.50;5221764;28;20197;-59
2021/03/10 05:50:59;;;;;;;49.67;39.90;;;3.60;99.90;;;4.64;93.23;98113.88;5212565;28;20205;-59
2021/03/10 05:53:38;;;;;;;47.70;38.10;;;3.60;99.90;;;4.63;93.35;98107.03;5223641;28;20228;-59
2021/03/10 05:56:10;;;;;;;41.47;34.20;;;3.70;99.90;;;4.70;93.25;98118.59;5222870;28;20654;-57
2021/03/10 05:58:42;;;;;;;41.40;33.00;;;3.70;99.90;;;4.75;93.41;98119.84;5225168;28;20548;-57
2021/03/10 06:01:14;;;;;;;41.73;32.60;;;3.70;99.90;;;4.76;93.11;98124.16;5222105;28;20649;-59
2021/03/10 06:03:53;;;;;;;43.90;35.50;;;3.70;99.90;;;4.81;92.88;98133.03;5218117;28;20590;-58
2021/03/10 06:06:26;;;;;;;42.17;33.43;;;3.70;99.90;;;4.74;92.73;98129.06;5215521;28;20198;-59
2021/03/10 06:09:10;;;;;;;43.10;34.57;;;3.70;99.90;;;4.76;92.93;98129.22;5216378;28;20292;-58
2021/03/10 06:11:55;;;;;;;42.33;33.80;;;3.70;99.90;;;4.76;92.59;98136.81;5218023;28;20688;-58
2021/03/10 06:14:29;;;;;;;41.27;33.57;;;3.70;99.90;;;4.76;92.72;98144.41;5213824;28;20695;-57
2021/03/10 06:17:04;;;;;;;41.40;35.10;;;3.80;99.90;;;4.80;92.72;98136.28;5212320;28;20576;-59
2021/03/10 06:19:44;;;;;;;42.30;34.20;;;3.80;99.90;;;4.81;92.36;98145.69;5218377;28;20215;-60
2021/03/10 06:22:18;;;;;;;38.97;32.30;;;3.80;99.90;;;4.84;92.55;98143.41;5213570;28;20264;-60
2021/03/10 06:25:00;;;;;;;41.27;32.80;;;3.80;99.90;;;4.91;92.12;98145.66;5213596;28;20684;-59
2021/03/10 06:27:32;;;;;;;39.27;32.50;;;3.80;99.90;;;4.91;92.08;98150.75;5215736;28;20198;-59
2021/03/10 06:30:05;;;;;;;39.50;32.27;;;3.80;99.90;;;4.92;92.11;98151.63;5211926;28;20198;-61
2021/03/10 06:32:41;;;;;;;40.40;32.87;;;3.90;99.90;;;4.93;92.01;98153.41;5222427;28;20589;-59
2021/03/10 06:35:25;;;;;;;39.47;32.77;;;3.90;99.90;;;4.92;91.68;98156.69;5212657;28;20753;-61
2021/03/10 06:38:12;;;;;;;39.93;33.40;;;3.80;99.90;;;4.95;91.94;98162.91;5224345;28;20193;-61
2021/03/10 06:40:56;;;;;;;40.30;32.60;;;3.90;99.90;;;4.93;92.21;98161.88;5225962;28;20573;-59
2021/03/10 06:43:40;;;;;;;39.27;31.77;;;3.90;99.90;;;4.97;92.17;98163.91;5211590;28;20726;-61
2021/03/10 06:46:13;;;;;;;41.03;33.10;;;4.00;99.90;;;5.03;91.93;98165.19;5217661;28;20554;-61
2021/03/10 06:48:54;;;;;;;40.90;33.50;;;3.90;99.90;;;5.11;91.94;98169.25;5223981;28;20197;-60
2021/03/10 06:51:29;;;;;;;39.30;31.57;;;4.00;99.90;;;5.26;91.08;98175.56;5223361;28;20220;-61
2021/03/10 06:54:02;;;;;;;39.90;31.70;;;4.00;99.90;;;5.29;90.18;98180.00;5208583;28;20233;-60
2021/03/10 06:56:34;;;;;;;43.53;34.47;;;4.00;99.90;;;5.22;89.78;98178.63;5223665;28;20201;-59
2021/03/10 06:59:07;;;;;;;43.03;33.97;;;4.00;99.90;;;5.19;90.57;98173.31;5222350;28;20197;-60
2021/03/10 07:01:42;;;;;;;42.90;34.90;;;4.00;99.90;;;5.18;90.57;98176.59;5220653;28;20572;-59
2021/03/10 07:04:14;;;;;;;44.83;35.13;;;4.10;99.90;;;5.19;90.46;98185.97;5217188;28;20189;-62
2021/03/10 07:06:49;;;;;;;41.73;32.97;;;4.10;99.90;;;5.19;91.10;98184.31;5221213;28;20671;-59
2021/03/10 07:09:22;;;;;;;41.73;32.73;;;4.10;99.90;;;5.29;90.81;98183.41;5224002;28;20210;-62
2021/03/10 07:11:54;;;;;;;45.37;33.67;;;4.10;99.90;;;5.43;89.31;98185.44;5208685;28;20222;-60
2021/03/10 07:14:26;;;;;;;45.53;34.00;;;4.10;99.90;;;5.41;89.24;98186.97;5210447;28;20220;-61
2021/03/10 07:17:00;;;;;;;41.83;33.60;;;4.20;99.90;;;5.31;89.36;98184.44;5217574;28;20202;-60
2021/03/10 07:19:34;;;;;;;43.90;34.07;;;4.20;99.90;;;5.31;90.30;98184.44;5220838;28;20201;-59
2021/03/10 07:22:16;;;;;;;42.40;33.13;;;4.20;99.90;;;5.34;90.38;98194.81;5220076;28;20237;-61
2021/03/10 07:24:52;;;;;;;39.43;32.60;;;4.30;99.90;;;5.39;90.14;98198.63;5222463;28;20581;-60
2021/03/10 07:27:26;;;;;;;43.30;32.83;;;4.20;99.90;;;5.40;89.51;98190.25;5218937;28;20608;-60
2021/03/10 07:29:59;;;;;;;43.00;33.03;;;4.30;99.90;;;5.43;89.89;98205.72;5214565;28;20203;-59
2021/03/10 07:32:32;;;;;;;45.50;34.00;;;4.30;99.90;;;5.47;89.68;98206.00;5208331;28;20230;-59
2021/03/10 07:35:07;;;;;;;43.43;33.40;;;4.40;99.90;;;5.49;89.98;98195.19;5215815;28;20200;-60
2021/03/10 07:37:52;;;;;;;46.80;34.57;;;4.40;99.90;;;5.65;89.49;98197.34;5204947;28;20238;-60
2021/03/10 07:40:32;;;;;;;43.90;33.53;;;4.50;99.90;;;5.78;87.75;98202.66;5210688;28;20208;-60
2021/03/10 07:43:04;;;;;;;43.30;33.50;;;4.50;99.90;;;5.86;87.13;98209.22;5213947;28;21045;-59
2021/03/10 07:45:43;;;;;;;40.10;32.20;;;4.60;99.90;;;5.83;87.02;98205.53;5211602;28;20212;-60
2021/03/10 07:48:16;;;;;;;45.17;33.73;;;4.60;99.90;;;5.88;86.67;98207.69;5221304;28;20197;-60
2021/03/10 07:50:48;;;;;;;43.33;33.67;;;4.60;99.90;;;5.85;86.79;98217.59;5218567;28;20205;-60
2021/03/10 07:53:20;;;;;;;41.63;33.10;;;4.60;99.90;;;5.85;86.79;98209.97;5216975;28;20227;-61
2021/03/10 07:55:52;;;;;;;43.40;33.03;;;4.60;99.90;;;5.99;85.47;98215.31;5222790;28;20550;-60
2021/03/10 07:58:29;;;;;;;42.23;32.97;;;4.60;99.90;;;6.09;85.63;98218.72;5215863;28;20194;-60
2021/03/10 08:01:01;;;;;;;41.47;32.90;;;4.70;99.90;;;6.20;84.82;98214.50;5208744;28;20197;-60
2021/03/10 08:03:35;;;;;;;38.23;31.00;;;4.70;99.90;;;6.30;84.62;98219.53;5217242;28;20232;-60
2021/03/10 08:06:10;;;;;;;40.07;32.47;;;4.90;99.90;;;6.39;84.41;98214.31;5218548;28;20199;-60
2021/03/10 08:08:44;;;;;;;44.20;33.57;;;5.00;99.90;;;6.52;83.63;98221.22;5208504;28;20206;-60
2021/03/10 08:11:18;;;;;;;43.13;32.40;;;5.10;99.90;;;6.51;83.61;98222.88;5224074;28;20191;-60
2021/03/10 08:13:59;;;;;;;41.83;32.53;;;5.20;99.90;;;6.60;82.78;98230.31;5225934;28;20228;-59
2021/03/10 08:16:46;;;;;;;42.37;31.90;;;5.20;99.90;;;6.67;80.86;98226.63;5223736;28;20212;-60
2021/03/10 08:19:22;;;;;;;45.87;33.17;;;5.20;99.90;;;6.64;81.31;98222.19;5226605;28;20189;-61
2021/03/10 08:21:56;;;;;;;42.70;32.93;;;5.20;99.90;;;6.65;80.60;98221.41;5211438;28;20240;-60
2021/03/10 08:24:29;;;;;;;43.73;33.03;;;5.30;99.90;;;6.64;81.32;98221.28;5205281;28;20206;-60
2021/03/10 08:27:02;;;;;;;39.20;31.43;;;5.40;99.90;;;6.85;80.28;98227.16;5212920;28;20284;-60
2021/03/10 08:29:35;;;;;;;43.00;32.57;;;5.50;99.90;;;6.95;79.15;98229.63;5205688;28;20300;-60
2021/03/10 08:32:07;;;;;;;43.87;33.00;;;5.60;99.90;;;7.12;78.56;98224.16;5206492;28;20693;-60
2021/03/10 08:34:39;;;;;;;44.10;33.20;;;5.70;99.90;;;7.23;77.09;98223.34;5205738;28;20226;-60
2021/03/10 08:37:13;;;;;;;40.60;31.73;;;5.70;99.90;;;7.21;76.53;98219.81;5215529;28;20208;-62
2021/03/10 08:39:48;;;;;;;41.60;32.23;;;5.80;99.90;;;7.11;77.56;98221.53;5205895;28;20221;-60
2021/03/10 08:42:24;;;;;;;40.37;31.97;;;5.80;99.90;;;7.21;76.85;98218.91;5217105;28;20275;-59
2021/03/10 08:44:56;;;;;;;41.20;32.40;;;5.90;99.90;;;7.23;76.50;98225.88;5212768;28;20198;-60
2021/03/10 08:47:28;;;;;;;41.73;31.80;;;5.90;99.90;;;7.47;74.73;98225.97;5205658;28;20210;-61
2021/03/10 08:50:00;;;;;;;40.97;31.07;;;6.00;99.90;;;7.53;75.07;98226.44;5207315;28;20255;-60
2021/03/10 08:52:32;;;;;;;41.57;33.03;;;6.10;99.90;;;7.59;74.51;98224.34;5217511;28;20217;-60
2021/03/10 08:55:06;;;;;;;39.53;31.33;;;6.20;99.90;;;7.51;75.15;98225.41;5216624;28;20216;-60
2021/03/10 08:57:39;;;;;;;42.90;31.73;;;6.30;99.90;;;7.57;75.67;98218.25;5214412;28;20190;-60
2021/03/10 09:00:20;;;;;;;41.93;33.63;;;6.40;99.90;;;7.58;75.82;98222.56;5222361;28;20198;-60
2021/03/10 09:02:53;;;;;;;40.33;32.03;;;6.40;99.90;;;7.86;74.88;98222.03;5208489;28;20708;-60
2021/03/10 09:05:28;;;;;;;43.17;33.17;;;6.70;99.90;;;7.85;75.61;98215.19;5223821;22;20229;-61
2021/03/10 09:08:00;;;;;;;43.03;32.50;;;6.70;99.90;;;7.88;74.75;98217.97;5209765;28;20201;-62
2021/03/10 09:10:34;;;;;;;42.00;32.13;;;6.70;99.90;;;8.02;74.49;98230.03;5212134;28;20202;-62
2021/03/10 09:13:06;;;;;;;42.63;32.23;;;6.80;99.90;;;8.18;73.19;98226.03;5214210;28;20235;-62
2021/03/10 09:15:40;;;;;;;41.07;32.57;;;6.90;99.90;;;8.45;71.15;98214.44;5203644;28;20345;-61
2021/03/10 09:18:12;;;;;;;41.23;31.43;;;7.00;99.90;;;8.52;70.21;98224.28;5196570;28;20588;-61
2021/03/10 09:20:46;;;;;;;42.03;31.70;;;7.00;99.90;;;8.52;70.09;98221.72;5208560;28;20289;-62
2021/03/10 09:23:38;;;;;;;41.63;32.53;;;7.20;99.90;;;8.57;69.76;98220.38;5206812;28;21234;-61
2021/03/10 09:26:11;;;;;;;41.00;30.77;;;7.10;99.90;;;8.77;69.91;98220.13;5206032;28;20222;-59
2021/03/10 09:28:43;;;;;;;39.37;30.83;;;7.30;99.90;;;8.80;69.27;98209.25;5204436;28;20212;-60
2021/03/10 09:31:16;;;;;;;38.87;30.67;;;7.50;99.90;;;8.97;68.75;98218.94;5211189;28;20207;-61
2021/03/10 09:33:49;;;;;;;39.23;29.90;;;7.70;99.90;;;8.89;67.77;98214.97;5209802;28;20261;-62
2021/03/10 09:36:25;;;;;;;43.10;32.63;;;7.70;99.90;;;8.97;68.62;98208.75;5204722;28;20214;-61
2021/03/10 09:38:58;;;;;;;41.80;30.93;;;7.90;99.90;;;9.19;68.05;98205.13;5189297;28;20666;-61
2021/03/10 09:41:32;;;;;;;44.37;31.73;;;8.20;99.90;;;9.29;66.90;98211.72;5206795;28;20188;-61
2021/03/10 09:44:08;;;;;;;39.73;30.10;;;8.30;99.90;;;9.52;65.64;98205.63;5216147;28;20190;-61
2021/03/10 09:46:44;;;;;;;38.70;29.97;;;8.40;99.90;;;9.78;65.53;98204.78;5205692;28;20665;-62
2021/03/10 09:49:16;;;;;;;42.30;30.87;;;8.70;99.90;;;9.92;63.95;98199.78;5205719;28;20199;-61
2021/03/10 09:51:50;;;;;;;37.63;29.53;;;8.80;99.90;;;10.12;62.86;98207.84;5222786;28;20597;-62
2021/03/10 09:54:22;;;;;;;33.93;27.60;;;8.90;99.90;;;10.18;63.00;98203.13;5205062;28;20218;-61
2021/03/10 09:56:56;;;;;;;36.67;29.03;;;8.90;99.90;;;10.31;62.80;98195.50;5221732;28;20197;-61
2021/03/10 09:59:32;;;;;;;34.47;26.63;;;9.00;99.90;;;10.54;61.16;98202.06;5206071;28;20200;-62
2021/03/10 10:02:04;;;;;;;31.40;25.73;;;9.20;99.90;;;10.62;59.62;98202.56;5221600;28;20557;-62
2021/03/10 10:04:37;;;;;;;33.93;25.67;;;9.40;99.90;;;10.66;58.42;98198.50;5208048;28;20226;-62
2021/03/10 10:07:11;;;;;;;31.47;25.07;;;9.40;99.90;;;10.62;58.79;98205.13;5208140;28;20602;-61
2021/03/10 10:09:43;;;;;;;28.60;23.07;;;9.40;99.90;;;10.50;56.36;98206.88;5206974;28;20208;-58
2021/03/10 10:12:17;;;;;;;29.70;23.77;;;9.30;99.90;;;10.35;57.72;98205.13;5208443;28;20293;-61
2021/03/10 10:14:49;;;;;;;29.70;23.80;;;9.20;99.90;;;10.40;58.81;98200.31;5225198;28;20692;-60
2021/03/10 10:17:21;;;;;;;29.03;22.93;;;9.30;99.90;;;10.52;57.64;98195.09;5209310;28;20236;-61
2021/03/10 10:19:53;;;;;;;27.50;22.50;;;9.30;99.90;;;10.71;56.05;98194.56;5196817;28;20202;-58
2021/03/10 10:22:28;;;;;;;25.77;20.37;;;9.50;99.90;;;10.79;53.78;98189.13;5208366;28;20202;-60
2021/03/10 10:25:02;;;;;;;26.90;20.90;;;9.50;99.90;;;10.72;54.45;98191.22;5207676;28;20222;-61
2021/03/10 10:27:35;;;;;;;25.97;20.37;;;9.40;99.90;;;10.70;55.40;98200.44;5210090;28;20198;-61
2021/03/10 10:30:08;;;;;;;27.23;21.93;;;9.30;99.90;;;10.65;56.07;98187.41;5210103;28;20201;-60
2021/03/10 10:32:41;;;;;;;25.83;20.90;;;9.30;99.90;;;10.68;55.97;98186.72;5214621;28;20294;-59
2021/03/10 10:35:16;;;;;;;27.20;21.80;;;9.50;99.90;;;11.00;55.07;98186.13;5214080;28;20242;-63
2021/03/10 10:37:48;;;;;;;24.47;20.33;;;9.60;99.90;;;11.10;53.36;98185.88;5226673;28;20283;-62
2021/03/10 10:40:22;;;;;;;23.77;19.97;;;9.70;99.90;;;11.02;52.39;98184.53;5210855;28;20296;-61
2021/03/10 10:43:11;;;;;;;24.30;20.50;;;9.80;99.90;;;11.04;52.88;98183.84;5209481;28;20312;-62
2021/03/10 10:45:44;;;;;;;25.53;20.50;;;9.80;99.90;;;11.12;52.33;98176.63;5212245;28;20217;-62